sensor_id;sensor_type;location;lat;lon;timestamp;temperature;humidity
43338;DHT22;28933;52.492;13.434;2022-07-29T00:01:06;18.90;68.60
43338;DHT22;28933;52.492;13.434;2022-07-29T00:03:31;18.90;68.70
43338;DHT22;28933;52.492;13.434;2022-07-29T00:05:57;18.80;68.90
43338;DHT22;28933;52.492;13.434;2022-07-29T00:08:23;18.80;69.10
43338;DHT22;28933;52.492;13.434;2022-07-29T00:10:48;18.80;69.20
43338;DHT22;28933;52.492;13.434;2022-07-29T00:13:14;18.80;69.40
43338;DHT22;28933;52.492;13.434;2022-07-29T00:15:39;18.70;69.60
43338;DHT22;28933;52.492;13.434;2022-07-29T00:18:05;18.70;69.80
43338;DHT22;28933;52.492;13.434;2022-07-29T00:20:30;18.70;70.00
43338;DHT22;28933;52.492;13.434;2022-07-29T00:22:56;18.60;70.20
43338;DHT22;28933;52.492;13.434;2022-07-29T00:25:22;18.60;70.40
43338;DHT22;28933;52.492;13.434;2022-07-29T00:27:47;18.60;70.70
43338;DHT22;28933;52.492;13.434;2022-07-29T00:30:13;18.60;70.70
43338;DHT22;28933;52.492;13.434;2022-07-29T00:32:39;18.60;70.90
43338;DHT22;28933;52.492;13.434;2022-07-29T00:35:05;18.60;71.10
43338;DHT22;28933;52.492;13.434;2022-07-29T00:37:50;18.50;71.20
43338;DHT22;28933;52.492;13.434;2022-07-29T00:40:16;18.50;71.80
43338;DHT22;28933;52.492;13.434;2022-07-29T00:42:46;18.50;71.70
43338;DHT22;28933;52.492;13.434;2022-07-29T00:45:12;18.40;71.90
43338;DHT22;28933;52.492;13.434;2022-07-29T00:47:38;18.40;72.00
43338;DHT22;28933;52.492;13.434;2022-07-29T00:50:06;18.40;72.30
43338;DHT22;28933;52.492;13.434;2022-07-29T00:52:33;18.40;72.50
43338;DHT22;28933;52.492;13.434;2022-07-29T00:54:59;18.30;72.60
43338;DHT22;28933;52.492;13.434;2022-07-29T00:57:24;18.30;72.70
43338;DHT22;28933;52.492;13.434;2022-07-29T00:59:50;18.30;72.90
43338;DHT22;28933;52.492;13.434;2022-07-29T01:02:15;18.30;73.20
43338;DHT22;28933;52.492;13.434;2022-07-29T01:04:41;18.30;73.50
43338;DHT22;28933;52.492;13.434;2022-07-29T01:07:07;18.20;73.50
43338;DHT22;28933;52.492;13.434;2022-07-29T01:09:33;18.20;73.80
43338;DHT22;28933;52.492;13.434;2022-07-29T01:12:00;18.20;74.00
43338;DHT22;28933;52.492;13.434;2022-07-29T01:14:27;18.20;74.20
43338;DHT22;28933;52.492;13.434;2022-07-29T01:17:02;18.10;74.30
43338;DHT22;28933;52.492;13.434;2022-07-29T01:19:49;18.10;74.40
43338;DHT22;28933;52.492;13.434;2022-07-29T01:25:27;18.10;74.70
43338;DHT22;28933;52.492;13.434;2022-07-29T01:31:00;18.10;75.00
43338;DHT22;28933;52.492;13.434;2022-07-29T01:33:28;18.10;75.10
43338;DHT22;28933;52.492;13.434;2022-07-29T01:36:16;18.10;75.10
43338;DHT22;28933;52.492;13.434;2022-07-29T01:38:46;18.00;75.40
43338;DHT22;28933;52.492;13.434;2022-07-29T01:41:17;18.00;75.50
43338;DHT22;28933;52.492;13.434;2022-07-29T01:43:53;18.00;75.60
43338;DHT22;28933;52.492;13.434;2022-07-29T01:46:25;18.00;75.70
43338;DHT22;28933;52.492;13.434;2022-07-29T01:48:56;18.00;75.80
43338;DHT22;28933;52.492;13.434;2022-07-29T01:51:31;17.90;75.90
43338;DHT22;28933;52.492;13.434;2022-07-29T01:54:08;18.00;76.10
43338;DHT22;28933;52.492;13.434;2022-07-29T01:56:36;18.00;75.70
43338;DHT22;28933;52.492;13.434;2022-07-29T01:59:05;17.90;76.00
43338;DHT22;28933;52.492;13.434;2022-07-29T02:01:33;17.90;76.30
43338;DHT22;28933;52.492;13.434;2022-07-29T02:04:03;17.80;76.50
43338;DHT22;28933;52.492;13.434;2022-07-29T02:06:32;17.80;76.60
43338;DHT22;28933;52.492;13.434;2022-07-29T02:08:59;17.80;76.80
43338;DHT22;28933;52.492;13.434;2022-07-29T02:11:25;17.80;76.80
43338;DHT22;28933;52.492;13.434;2022-07-29T02:13:53;17.80;76.90
43338;DHT22;28933;52.492;13.434;2022-07-29T02:16:21;17.80;77.10
43338;DHT22;28933;52.492;13.434;2022-07-29T02:18:50;17.70;77.30
43338;DHT22;28933;52.492;13.434;2022-07-29T02:21:22;17.80;77.30
43338;DHT22;28933;52.492;13.434;2022-07-29T02:23:49;17.70;77.40
43338;DHT22;28933;52.492;13.434;2022-07-29T02:26:17;17.70;77.40
43338;DHT22;28933;52.492;13.434;2022-07-29T02:28:43;17.80;77.50
43338;DHT22;28933;52.492;13.434;2022-07-29T02:31:11;17.70;77.60
43338;DHT22;28933;52.492;13.434;2022-07-29T02:33:37;17.70;77.70
43338;DHT22;28933;52.492;13.434;2022-07-29T02:36:04;17.70;77.70
43338;DHT22;28933;52.492;13.434;2022-07-29T02:38:30;17.70;77.80
43338;DHT22;28933;52.492;13.434;2022-07-29T02:41:27;17.70;77.90
43338;DHT22;28933;52.492;13.434;2022-07-29T02:43:56;17.70;77.90
43338;DHT22;28933;52.492;13.434;2022-07-29T02:46:33;17.70;78.00
43338;DHT22;28933;52.492;13.434;2022-07-29T02:49:10;17.70;78.00
43338;DHT22;28933;52.492;13.434;2022-07-29T02:51:59;17.70;78.10
43338;DHT22;28933;52.492;13.434;2022-07-29T02:54:43;17.70;78.00
43338;DHT22;28933;52.492;13.434;2022-07-29T02:57:23;17.70;78.30
43338;DHT22;28933;52.492;13.434;2022-07-29T02:59:52;17.70;78.30
43338;DHT22;28933;52.492;13.434;2022-07-29T03:02:20;17.70;78.20
43338;DHT22;28933;52.492;13.434;2022-07-29T03:04:47;17.70;78.50
43338;DHT22;28933;52.492;13.434;2022-07-29T03:07:15;17.70;78.50
43338;DHT22;28933;52.492;13.434;2022-07-29T03:09:44;17.70;78.50
43338;DHT22;28933;52.492;13.434;2022-07-29T03:12:10;17.70;78.60
43338;DHT22;28933;52.492;13.434;2022-07-29T03:14:37;17.70;78.60
43338;DHT22;28933;52.492;13.434;2022-07-29T03:17:03;17.70;78.80
43338;DHT22;28933;52.492;13.434;2022-07-29T03:19:29;17.70;78.70
43338;DHT22;28933;52.492;13.434;2022-07-29T03:21:57;17.70;78.80
43338;DHT22;28933;52.492;13.434;2022-07-29T03:24:32;17.70;78.80
43338;DHT22;28933;52.492;13.434;2022-07-29T03:26:58;17.70;78.90
43338;DHT22;28933;52.492;13.434;2022-07-29T03:29:24;17.70;78.80
43338;DHT22;28933;52.492;13.434;2022-07-29T03:31:50;17.70;78.90
43338;DHT22;28933;52.492;13.434;2022-07-29T03:34:16;17.70;78.90
43338;DHT22;28933;52.492;13.434;2022-07-29T03:36:41;17.70;79.10
43338;DHT22;28933;52.492;13.434;2022-07-29T03:39:08;17.70;79.30
43338;DHT22;28933;52.492;13.434;2022-07-29T03:41:35;17.60;79.10
43338;DHT22;28933;52.492;13.434;2022-07-29T03:44:02;17.60;79.20
43338;DHT22;28933;52.492;13.434;2022-07-29T03:46:29;17.60;79.20
43338;DHT22;28933;52.492;13.434;2022-07-29T03:48:59;17.60;79.40
43338;DHT22;28933;52.492;13.434;2022-07-29T03:51:26;17.60;79.40
43338;DHT22;28933;52.492;13.434;2022-07-29T03:53:52;17.60;79.40
43338;DHT22;28933;52.492;13.434;2022-07-29T03:56:21;17.60;79.60
43338;DHT22;28933;52.492;13.434;2022-07-29T03:58:48;17.50;79.50
43338;DHT22;28933;52.492;13.434;2022-07-29T04:01:16;17.60;79.60
43338;DHT22;28933;52.492;13.434;2022-07-29T04:03:43;17.60;79.70
43338;DHT22;28933;52.492;13.434;2022-07-29T04:06:11;17.60;79.70
43338;DHT22;28933;52.492;13.434;2022-07-29T04:08:36;17.60;79.80
43338;DHT22;28933;52.492;13.434;2022-07-29T04:11:03;17.60;80.40
43338;DHT22;28933;52.492;13.434;2022-07-29T04:13:29;17.60;80.00
43338;DHT22;28933;52.492;13.434;2022-07-29T04:15:54;17.60;80.00
43338;DHT22;28933;52.492;13.434;2022-07-29T04:18:20;17.60;80.10
43338;DHT22;28933;52.492;13.434;2022-07-29T04:20:46;17.60;80.10
43338;DHT22;28933;52.492;13.434;2022-07-29T04:23:11;17.60;80.20
43338;DHT22;28933;52.492;13.434;2022-07-29T04:25:38;17.70;80.40
43338;DHT22;28933;52.492;13.434;2022-07-29T04:28:04;17.70;80.40
43338;DHT22;28933;52.492;13.434;2022-07-29T04:30:30;17.70;80.30
43338;DHT22;28933;52.492;13.434;2022-07-29T04:32:56;17.70;80.40
43338;DHT22;28933;52.492;13.434;2022-07-29T04:35:22;17.70;80.30
43338;DHT22;28933;52.492;13.434;2022-07-29T04:37:48;17.70;80.50
43338;DHT22;28933;52.492;13.434;2022-07-29T04:40:14;17.70;80.50
43338;DHT22;28933;52.492;13.434;2022-07-29T04:42:39;17.80;80.60
43338;DHT22;28933;52.492;13.434;2022-07-29T04:45:05;17.80;80.60
43338;DHT22;28933;52.492;13.434;2022-07-29T04:47:31;17.80;80.50
43338;DHT22;28933;52.492;13.434;2022-07-29T04:49:56;17.80;80.60
43338;DHT22;28933;52.492;13.434;2022-07-29T04:52:22;17.90;80.60
43338;DHT22;28933;52.492;13.434;2022-07-29T04:54:48;17.90;80.30
43338;DHT22;28933;52.492;13.434;2022-07-29T04:57:14;17.90;80.30
43338;DHT22;28933;52.492;13.434;2022-07-29T04:59:39;17.90;80.40
43338;DHT22;28933;52.492;13.434;2022-07-29T05:02:05;17.90;80.30
43338;DHT22;28933;52.492;13.434;2022-07-29T05:04:30;17.90;80.40
43338;DHT22;28933;52.492;13.434;2022-07-29T05:06:56;18.00;80.70
43338;DHT22;28933;52.492;13.434;2022-07-29T05:09:22;17.90;80.40
43338;DHT22;28933;52.492;13.434;2022-07-29T05:11:48;18.00;80.40
43338;DHT22;28933;52.492;13.434;2022-07-29T05:14:14;18.00;80.60
43338;DHT22;28933;52.492;13.434;2022-07-29T05:16:40;18.10;80.50
43338;DHT22;28933;52.492;13.434;2022-07-29T05:19:07;18.20;80.40
43338;DHT22;28933;52.492;13.434;2022-07-29T05:21:32;18.20;80.50
43338;DHT22;28933;52.492;13.434;2022-07-29T05:23:58;18.30;80.20
43338;DHT22;28933;52.492;13.434;2022-07-29T05:26:23;18.40;80.00
43338;DHT22;28933;52.492;13.434;2022-07-29T05:28:49;18.40;79.70
43338;DHT22;28933;52.492;13.434;2022-07-29T05:31:15;18.50;79.70
43338;DHT22;28933;52.492;13.434;2022-07-29T05:33:41;18.50;79.70
43338;DHT22;28933;52.492;13.434;2022-07-29T05:36:07;18.60;79.50
43338;DHT22;28933;52.492;13.434;2022-07-29T05:38:34;18.60;79.30
43338;DHT22;28933;52.492;13.434;2022-07-29T05:40:59;18.60;79.20
43338;DHT22;28933;52.492;13.434;2022-07-29T05:43:26;18.60;79.10
43338;DHT22;28933;52.492;13.434;2022-07-29T05:45:52;18.60;78.90
43338;DHT22;28933;52.492;13.434;2022-07-29T05:48:17;18.60;78.80
43338;DHT22;28933;52.492;13.434;2022-07-29T05:50:43;18.60;79.00
43338;DHT22;28933;52.492;13.434;2022-07-29T05:53:08;18.70;79.00
43338;DHT22;28933;52.492;13.434;2022-07-29T05:55:34;18.70;79.10
43338;DHT22;28933;52.492;13.434;2022-07-29T05:57:59;18.80;79.10
43338;DHT22;28933;52.492;13.434;2022-07-29T06:00:25;18.80;78.80
43338;DHT22;28933;52.492;13.434;2022-07-29T06:02:51;18.80;78.70
43338;DHT22;28933;52.492;13.434;2022-07-29T06:05:16;18.80;78.50
43338;DHT22;28933;52.492;13.434;2022-07-29T06:07:42;18.90;78.70
43338;DHT22;28933;52.492;13.434;2022-07-29T06:10:08;19.00;78.50
43338;DHT22;28933;52.492;13.434;2022-07-29T06:12:34;19.20;78.60
43338;DHT22;28933;52.492;13.434;2022-07-29T06:15:00;19.30;78.40
43338;DHT22;28933;52.492;13.434;2022-07-29T06:17:26;19.40;78.60
43338;DHT22;28933;52.492;13.434;2022-07-29T06:19:52;19.50;78.00
43338;DHT22;28933;52.492;13.434;2022-07-29T06:22:17;19.50;77.50
43338;DHT22;28933;52.492;13.434;2022-07-29T06:24:43;19.60;77.40
43338;DHT22;28933;52.492;13.434;2022-07-29T06:27:10;19.70;77.20
43338;DHT22;28933;52.492;13.434;2022-07-29T06:29:36;19.80;77.00
43338;DHT22;28933;52.492;13.434;2022-07-29T06:32:01;19.90;76.50
43338;DHT22;28933;52.492;13.434;2022-07-29T06:34:28;19.90;76.40
43338;DHT22;28933;52.492;13.434;2022-07-29T06:36:53;20.10;76.50
43338;DHT22;28933;52.492;13.434;2022-07-29T06:39:19;20.10;76.40
43338;DHT22;28933;52.492;13.434;2022-07-29T06:41:49;20.20;76.20
43338;DHT22;28933;52.492;13.434;2022-07-29T06:44:16;20.30;76.10
43338;DHT22;28933;52.492;13.434;2022-07-29T06:46:41;20.40;76.00
43338;DHT22;28933;52.492;13.434;2022-07-29T06:49:07;20.40;76.50
43338;DHT22;28933;52.492;13.434;2022-07-29T06:51:33;20.50;76.20
43338;DHT22;28933;52.492;13.434;2022-07-29T06:53:59;20.60;76.10
43338;DHT22;28933;52.492;13.434;2022-07-29T06:56:26;20.60;76.80
43338;DHT22;28933;52.492;13.434;2022-07-29T06:58:51;20.70;75.80
43338;DHT22;28933;52.492;13.434;2022-07-29T07:01:17;20.80;75.60
43338;DHT22;28933;52.492;13.434;2022-07-29T07:03:43;20.90;75.40
43338;DHT22;28933;52.492;13.434;2022-07-29T07:06:08;20.90;75.30
43338;DHT22;28933;52.492;13.434;2022-07-29T07:08:34;21.00;75.80
43338;DHT22;28933;52.492;13.434;2022-07-29T07:10:59;21.00;75.10
43338;DHT22;28933;52.492;13.434;2022-07-29T07:13:25;21.10;74.40
43338;DHT22;28933;52.492;13.434;2022-07-29T07:15:51;21.10;74.80
43338;DHT22;28933;52.492;13.434;2022-07-29T07:18:18;21.20;74.20
43338;DHT22;28933;52.492;13.434;2022-07-29T07:20:44;21.30;73.90
43338;DHT22;28933;52.492;13.434;2022-07-29T07:23:10;21.40;73.70
43338;DHT22;28933;52.492;13.434;2022-07-29T07:25:35;21.50;73.20
43338;DHT22;28933;52.492;13.434;2022-07-29T07:28:01;21.50;73.00
43338;DHT22;28933;52.492;13.434;2022-07-29T07:30:27;21.60;72.50
43338;DHT22;28933;52.492;13.434;2022-07-29T07:32:53;21.60;72.40
43338;DHT22;28933;52.492;13.434;2022-07-29T07:35:19;21.60;72.00
43338;DHT22;28933;52.492;13.434;2022-07-29T07:37:45;21.60;72.10
43338;DHT22;28933;52.492;13.434;2022-07-29T07:40:11;21.60;72.90
43338;DHT22;28933;52.492;13.434;2022-07-29T07:42:38;21.60;72.30
43338;DHT22;28933;52.492;13.434;2022-07-29T07:45:04;21.70;72.30
43338;DHT22;28933;52.492;13.434;2022-07-29T07:47:31;21.70;72.20
43338;DHT22;28933;52.492;13.434;2022-07-29T07:49:57;21.60;71.90
43338;DHT22;28933;52.492;13.434;2022-07-29T07:52:22;21.70;71.60
43338;DHT22;28933;52.492;13.434;2022-07-29T07:54:48;21.80;71.80
43338;DHT22;28933;52.492;13.434;2022-07-29T07:57:14;21.80;71.80
43338;DHT22;28933;52.492;13.434;2022-07-29T07:59:40;21.90;71.90
43338;DHT22;28933;52.492;13.434;2022-07-29T08:02:05;22.00;72.10
43338;DHT22;28933;52.492;13.434;2022-07-29T08:04:32;22.00;71.20
43338;DHT22;28933;52.492;13.434;2022-07-29T08:06:58;22.10;71.10
43338;DHT22;28933;52.492;13.434;2022-07-29T08:09:25;22.20;70.80
43338;DHT22;28933;52.492;13.434;2022-07-29T08:11:51;22.20;70.30
43338;DHT22;28933;52.492;13.434;2022-07-29T08:14:17;22.30;70.40
43338;DHT22;28933;52.492;13.434;2022-07-29T08:16:43;22.40;70.10
43338;DHT22;28933;52.492;13.434;2022-07-29T08:19:09;22.40;69.70
43338;DHT22;28933;52.492;13.434;2022-07-29T08:21:35;22.50;69.40
43338;DHT22;28933;52.492;13.434;2022-07-29T08:24:00;22.60;69.10
43338;DHT22;28933;52.492;13.434;2022-07-29T08:26:45;22.60;68.90
43338;DHT22;28933;52.492;13.434;2022-07-29T08:29:11;22.70;68.60
43338;DHT22;28933;52.492;13.434;2022-07-29T08:31:38;22.80;68.10
43338;DHT22;28933;52.492;13.434;2022-07-29T08:34:04;22.90;68.70
43338;DHT22;28933;52.492;13.434;2022-07-29T08:36:31;22.90;67.80
43338;DHT22;28933;52.492;13.434;2022-07-29T08:38:57;23.00;68.30
43338;DHT22;28933;52.492;13.434;2022-07-29T08:41:23;23.10;68.10
43338;DHT22;28933;52.492;13.434;2022-07-29T08:43:50;23.10;67.90
43338;DHT22;28933;52.492;13.434;2022-07-29T08:46:16;23.20;67.20
43338;DHT22;28933;52.492;13.434;2022-07-29T08:48:42;23.20;67.30
43338;DHT22;28933;52.492;13.434;2022-07-29T08:51:13;23.30;66.70
43338;DHT22;28933;52.492;13.434;2022-07-29T08:53:41;23.30;66.70
43338;DHT22;28933;52.492;13.434;2022-07-29T08:56:11;23.40;66.60
43338;DHT22;28933;52.492;13.434;2022-07-29T08:58:36;23.50;66.00
43338;DHT22;28933;52.492;13.434;2022-07-29T09:01:03;23.50;65.40
43338;DHT22;28933;52.492;13.434;2022-07-29T09:03:33;23.60;65.90
43338;DHT22;28933;52.492;13.434;2022-07-29T09:06:00;23.60;65.60
43338;DHT22;28933;52.492;13.434;2022-07-29T09:08:27;23.70;64.60
43338;DHT22;28933;52.492;13.434;2022-07-29T09:10:54;23.80;64.70
43338;DHT22;28933;52.492;13.434;2022-07-29T09:13:21;23.80;64.20
43338;DHT22;28933;52.492;13.434;2022-07-29T09:15:46;23.90;64.00
43338;DHT22;28933;52.492;13.434;2022-07-29T09:18:12;24.00;63.90
43338;DHT22;28933;52.492;13.434;2022-07-29T09:20:57;24.10;63.50
43338;DHT22;28933;52.492;13.434;2022-07-29T09:26:28;24.30;63.20
43338;DHT22;28933;52.492;13.434;2022-07-29T09:28:54;24.40;63.20
43338;DHT22;28933;52.492;13.434;2022-07-29T09:31:33;24.50;62.90
43338;DHT22;28933;52.492;13.434;2022-07-29T09:33:59;24.60;62.70
43338;DHT22;28933;52.492;13.434;2022-07-29T09:36:26;24.60;62.20
43338;DHT22;28933;52.492;13.434;2022-07-29T09:39:01;24.70;61.70
43338;DHT22;28933;52.492;13.434;2022-07-29T09:41:29;24.70;61.00
43338;DHT22;28933;52.492;13.434;2022-07-29T09:43:59;24.80;60.60
43338;DHT22;28933;52.492;13.434;2022-07-29T09:46:25;24.90;60.90
43338;DHT22;28933;52.492;13.434;2022-07-29T09:49:10;24.90;60.30
43338;DHT22;28933;52.492;13.434;2022-07-29T09:51:36;25.00;60.40
43338;DHT22;28933;52.492;13.434;2022-07-29T09:54:24;25.10;59.90
43338;DHT22;28933;52.492;13.434;2022-07-29T09:56:51;25.20;59.70
43338;DHT22;28933;52.492;13.434;2022-07-29T09:59:16;25.30;58.80
43338;DHT22;28933;52.492;13.434;2022-07-29T10:01:42;25.40;59.30
43338;DHT22;28933;52.492;13.434;2022-07-29T10:04:08;25.50;59.20
43338;DHT22;28933;52.492;13.434;2022-07-29T10:06:34;25.70;57.80
43338;DHT22;28933;52.492;13.434;2022-07-29T10:09:10;25.80;58.00
43338;DHT22;28933;52.492;13.434;2022-07-29T10:11:36;25.90;57.10
43338;DHT22;28933;52.492;13.434;2022-07-29T10:14:03;26.10;56.20
43338;DHT22;28933;52.492;13.434;2022-07-29T10:16:30;26.10;55.50
43338;DHT22;28933;52.492;13.434;2022-07-29T10:18:58;26.20;55.20
43338;DHT22;28933;52.492;13.434;2022-07-29T10:21:25;26.20;54.80
43338;DHT22;28933;52.492;13.434;2022-07-29T10:23:52;26.30;54.50
43338;DHT22;28933;52.492;13.434;2022-07-29T10:26:19;26.40;54.40
43338;DHT22;28933;52.492;13.434;2022-07-29T10:28:45;26.50;54.60
43338;DHT22;28933;52.492;13.434;2022-07-29T10:31:19;26.50;53.90
43338;DHT22;28933;52.492;13.434;2022-07-29T10:34:11;26.50;53.50
43338;DHT22;28933;52.492;13.434;2022-07-29T10:36:56;26.40;53.20
43338;DHT22;28933;52.492;13.434;2022-07-29T10:42:25;26.40;53.30
43338;DHT22;28933;52.492;13.434;2022-07-29T10:44:53;26.40;53.30
43338;DHT22;28933;52.492;13.434;2022-07-29T10:47:28;26.50;53.90
43338;DHT22;28933;52.492;13.434;2022-07-29T10:50:05;26.60;53.70
43338;DHT22;28933;52.492;13.434;2022-07-29T10:58:19;27.00;53.60
43338;DHT22;28933;52.492;13.434;2022-07-29T11:00:48;27.10;52.90
43338;DHT22;28933;52.492;13.434;2022-07-29T11:03:42;27.20;52.60
43338;DHT22;28933;52.492;13.434;2022-07-29T11:06:09;27.30;52.50
43338;DHT22;28933;52.492;13.434;2022-07-29T11:08:35;27.30;52.40
43338;DHT22;28933;52.492;13.434;2022-07-29T11:13:47;27.30;52.00
43338;DHT22;28933;52.492;13.434;2022-07-29T11:16:14;27.30;52.30
43338;DHT22;28933;52.492;13.434;2022-07-29T11:21:38;27.20;52.20
43338;DHT22;28933;52.492;13.434;2022-07-29T11:24:12;27.20;52.50
43338;DHT22;28933;52.492;13.434;2022-07-29T11:26:38;27.20;52.00
43338;DHT22;28933;52.492;13.434;2022-07-29T11:29:19;27.20;51.60
43338;DHT22;28933;52.492;13.434;2022-07-29T11:31:48;27.30;51.70
43338;DHT22;28933;52.492;13.434;2022-07-29T11:34:23;27.30;52.10
43338;DHT22;28933;52.492;13.434;2022-07-29T11:37:15;27.30;51.70
43338;DHT22;28933;52.492;13.434;2022-07-29T11:45:02;27.40;52.20
43338;DHT22;28933;52.492;13.434;2022-07-29T11:47:31;27.40;52.30
43338;DHT22;28933;52.492;13.434;2022-07-29T11:49:58;27.40;52.40
43338;DHT22;28933;52.492;13.434;2022-07-29T11:52:35;27.40;52.80
43338;DHT22;28933;52.492;13.434;2022-07-29T11:55:05;27.50;52.90
43338;DHT22;28933;52.492;13.434;2022-07-29T11:57:31;27.50;52.60
43338;DHT22;28933;52.492;13.434;2022-07-29T11:59:58;27.50;53.00
43338;DHT22;28933;52.492;13.434;2022-07-29T12:02:24;27.50;53.00
43338;DHT22;28933;52.492;13.434;2022-07-29T12:04:50;27.50;53.20
43338;DHT22;28933;52.492;13.434;2022-07-29T12:07:16;27.60;53.50
43338;DHT22;28933;52.492;13.434;2022-07-29T12:09:51;27.70;53.30
43338;DHT22;28933;52.492;13.434;2022-07-29T12:12:17;27.60;53.30
43338;DHT22;28933;52.492;13.434;2022-07-29T12:14:43;27.70;53.70
43338;DHT22;28933;52.492;13.434;2022-07-29T12:17:32;27.80;54.60
43338;DHT22;28933;52.492;13.434;2022-07-29T12:20:00;27.80;54.20
43338;DHT22;28933;52.492;13.434;2022-07-29T12:22:33;27.80;54.00
43338;DHT22;28933;52.492;13.434;2022-07-29T12:25:04;27.90;54.30
43338;DHT22;28933;52.492;13.434;2022-07-29T12:27:30;27.90;54.80
43338;DHT22;28933;52.492;13.434;2022-07-29T12:29:57;28.00;54.70
43338;DHT22;28933;52.492;13.434;2022-07-29T12:32:23;28.10;55.20
43338;DHT22;28933;52.492;13.434;2022-07-29T12:34:49;28.10;55.00
43338;DHT22;28933;52.492;13.434;2022-07-29T12:37:16;28.20;54.40
43338;DHT22;28933;52.492;13.434;2022-07-29T12:39:42;28.30;53.90
43338;DHT22;28933;52.492;13.434;2022-07-29T12:42:14;28.40;54.10
43338;DHT22;28933;52.492;13.434;2022-07-29T12:44:48;28.40;53.70
43338;DHT22;28933;52.492;13.434;2022-07-29T12:47:15;28.40;53.40
43338;DHT22;28933;52.492;13.434;2022-07-29T12:49:41;28.40;53.60
43338;DHT22;28933;52.492;13.434;2022-07-29T12:54:49;28.20;53.50
43338;DHT22;28933;52.492;13.434;2022-07-29T12:57:14;28.20;53.00
43338;DHT22;28933;52.492;13.434;2022-07-29T12:59:40;28.20;52.90
43338;DHT22;28933;52.492;13.434;2022-07-29T13:02:06;28.20;52.80
43338;DHT22;28933;52.492;13.434;2022-07-29T13:04:33;28.30;53.30
43338;DHT22;28933;52.492;13.434;2022-07-29T13:07:06;28.40;53.60
43338;DHT22;28933;52.492;13.434;2022-07-29T13:09:42;28.50;53.70
43338;DHT22;28933;52.492;13.434;2022-07-29T13:12:10;28.50;53.70
43338;DHT22;28933;52.492;13.434;2022-07-29T13:14:40;28.50;52.90
43338;DHT22;28933;52.492;13.434;2022-07-29T13:17:08;28.50;53.10
43338;DHT22;28933;52.492;13.434;2022-07-29T13:19:35;28.40;52.80
43338;DHT22;28933;52.492;13.434;2022-07-29T13:22:01;28.40;53.20
43338;DHT22;28933;52.492;13.434;2022-07-29T13:24:26;28.40;52.80
43338;DHT22;28933;52.492;13.434;2022-07-29T13:26:52;28.50;52.90
43338;DHT22;28933;52.492;13.434;2022-07-29T13:29:17;28.50;52.70
43338;DHT22;28933;52.492;13.434;2022-07-29T13:31:43;28.60;53.20
43338;DHT22;28933;52.492;13.434;2022-07-29T13:34:09;28.70;52.30
43338;DHT22;28933;52.492;13.434;2022-07-29T13:36:34;28.60;52.40
43338;DHT22;28933;52.492;13.434;2022-07-29T13:39:00;28.70;53.10
43338;DHT22;28933;52.492;13.434;2022-07-29T13:41:28;28.90;53.40
43338;DHT22;28933;52.492;13.434;2022-07-29T13:43:54;29.10;53.70
43338;DHT22;28933;52.492;13.434;2022-07-29T13:46:19;29.20;53.70
43338;DHT22;28933;52.492;13.434;2022-07-29T13:48:45;29.40;53.10
43338;DHT22;28933;52.492;13.434;2022-07-29T13:51:11;29.50;52.70
43338;DHT22;28933;52.492;13.434;2022-07-29T13:53:36;29.60;52.40
43338;DHT22;28933;52.492;13.434;2022-07-29T13:56:02;29.80;52.30
43338;DHT22;28933;52.492;13.434;2022-07-29T13:58:30;29.90;52.30
43338;DHT22;28933;52.492;13.434;2022-07-29T14:00:56;29.90;51.80
43338;DHT22;28933;52.492;13.434;2022-07-29T14:03:22;30.00;51.30
43338;DHT22;28933;52.492;13.434;2022-07-29T14:05:47;30.00;51.00
43338;DHT22;28933;52.492;13.434;2022-07-29T14:08:13;30.00;51.40
43338;DHT22;28933;52.492;13.434;2022-07-29T14:10:38;30.10;51.00
43338;DHT22;28933;52.492;13.434;2022-07-29T14:13:04;30.10;51.00
43338;DHT22;28933;52.492;13.434;2022-07-29T14:15:29;30.10;51.00
43338;DHT22;28933;52.492;13.434;2022-07-29T14:17:55;30.20;51.00
43338;DHT22;28933;52.492;13.434;2022-07-29T14:20:21;30.30;51.20
43338;DHT22;28933;52.492;13.434;2022-07-29T14:22:46;30.40;51.20
43338;DHT22;28933;52.492;13.434;2022-07-29T14:25:12;30.50;50.80
43338;DHT22;28933;52.492;13.434;2022-07-29T14:27:41;30.70;50.90
43338;DHT22;28933;52.492;13.434;2022-07-29T14:30:07;30.80;50.00
43338;DHT22;28933;52.492;13.434;2022-07-29T14:32:33;30.80;50.20
43338;DHT22;28933;52.492;13.434;2022-07-29T14:34:58;30.80;50.00
43338;DHT22;28933;52.492;13.434;2022-07-29T14:37:24;30.70;49.50
43338;DHT22;28933;52.492;13.434;2022-07-29T14:39:49;30.50;49.40
43338;DHT22;28933;52.492;13.434;2022-07-29T14:42:15;30.40;49.20
43338;DHT22;28933;52.492;13.434;2022-07-29T14:44:41;30.40;49.50
43338;DHT22;28933;52.492;13.434;2022-07-29T14:47:06;30.30;49.40
43338;DHT22;28933;52.492;13.434;2022-07-29T14:49:32;30.20;49.80
43338;DHT22;28933;52.492;13.434;2022-07-29T14:51:57;30.00;49.80
43338;DHT22;28933;52.492;13.434;2022-07-29T14:54:23;29.80;49.90
43338;DHT22;28933;52.492;13.434;2022-07-29T14:56:48;29.60;50.10
43338;DHT22;28933;52.492;13.434;2022-07-29T14:59:16;29.50;50.40
43338;DHT22;28933;52.492;13.434;2022-07-29T15:01:42;29.40;50.10
43338;DHT22;28933;52.492;13.434;2022-07-29T15:04:08;29.50;50.10
43338;DHT22;28933;52.492;13.434;2022-07-29T15:06:33;29.60;49.80
43338;DHT22;28933;52.492;13.434;2022-07-29T15:08:59;29.70;50.10
43338;DHT22;28933;52.492;13.434;2022-07-29T15:11:25;29.80;49.50
43338;DHT22;28933;52.492;13.434;2022-07-29T15:13:50;29.90;49.40
43338;DHT22;28933;52.492;13.434;2022-07-29T15:16:16;29.90;49.20
43338;DHT22;28933;52.492;13.434;2022-07-29T15:18:42;30.00;50.10
43338;DHT22;28933;52.492;13.434;2022-07-29T15:21:07;30.10;49.10
43338;DHT22;28933;52.492;13.434;2022-07-29T15:23:33;30.20;49.00
43338;DHT22;28933;52.492;13.434;2022-07-29T15:26:02;30.20;48.70
43338;DHT22;28933;52.492;13.434;2022-07-29T15:28:27;30.30;48.80
43338;DHT22;28933;52.492;13.434;2022-07-29T15:30:53;30.30;48.50
43338;DHT22;28933;52.492;13.434;2022-07-29T15:33:19;30.40;48.40
43338;DHT22;28933;52.492;13.434;2022-07-29T15:35:45;30.30;47.90
43338;DHT22;28933;52.492;13.434;2022-07-29T15:38:11;30.30;48.20
43338;DHT22;28933;52.492;13.434;2022-07-29T15:40:37;30.40;47.90
43338;DHT22;28933;52.492;13.434;2022-07-29T15:43:05;30.40;47.90
43338;DHT22;28933;52.492;13.434;2022-07-29T15:45:42;30.50;48.30
43338;DHT22;28933;52.492;13.434;2022-07-29T15:48:27;30.50;48.00
43338;DHT22;28933;52.492;13.434;2022-07-29T15:50:53;30.60;47.90